createdAt,value
2023-10-25T00:02:46.116Z,8.50
2023-10-25T00:06:47.816Z,8.40
2023-10-25T00:10:49.522Z,8.40
2023-10-25T00:14:51.228Z,8.40
2023-10-25T00:18:52.904Z,8.40
2023-10-25T00:22:54.566Z,8.40
2023-10-25T00:26:56.244Z,8.40
2023-10-25T00:30:58.130Z,8.40
2023-10-25T00:35:00.007Z,8.40
2023-10-25T00:39:01.802Z,8.30
2023-10-25T00:43:21.408Z,8.40
2023-10-25T00:47:24.075Z,8.40
2023-10-25T00:51:27.766Z,8.30
2023-10-25T00:55:29.511Z,8.30
2023-10-25T00:59:32.280Z,8.20
2023-10-25T01:03:34.056Z,8.20
2023-10-25T01:07:35.857Z,8.20
2023-10-25T01:11:38.355Z,8.20
2023-10-25T01:15:40.125Z,8.20
2023-10-25T01:19:42.053Z,8.20
2023-10-25T01:23:43.901Z,8.20
2023-10-25T01:27:45.688Z,8.20
2023-10-25T01:31:47.507Z,8.20
2023-10-25T01:35:50.454Z,8.30
2023-10-25T01:39:52.194Z,8.20
2023-10-25T01:43:54.062Z,8.30
2023-10-25T01:47:55.948Z,8.30
2023-10-25T01:51:58.902Z,8.30
2023-10-25T01:56:00.794Z,8.30
2023-10-25T02:00:04.134Z,8.30
2023-10-25T02:04:06.182Z,8.40
2023-10-25T02:08:07.984Z,8.50
2023-10-25T02:12:09.964Z,8.40
2023-10-25T02:16:16.923Z,8.40
2023-10-25T02:20:18.695Z,8.40
2023-10-25T02:24:20.447Z,8.50
2023-10-25T02:28:22.085Z,8.40
2023-10-25T02:32:23.767Z,8.40
2023-10-25T02:36:25.722Z,8.40
2023-10-25T02:40:27.385Z,8.40
2023-10-25T02:44:29.082Z,8.30
2023-10-25T02:48:30.787Z,8.40
2023-10-25T02:52:32.416Z,8.30
2023-10-25T02:56:34.093Z,8.30
2023-10-25T03:00:37.374Z,8.40
2023-10-25T03:04:39.184Z,8.40
2023-10-25T03:08:40.877Z,8.30
2023-10-25T03:12:42.626Z,8.30
2023-10-25T03:16:44.571Z,8.40
2023-10-25T03:20:46.310Z,8.40
2023-10-25T03:24:48.112Z,8.40
2023-10-25T03:28:51.661Z,8.50
2023-10-25T03:32:53.356Z,8.50
2023-10-25T03:36:55.279Z,8.50
2023-10-25T03:41:07.860Z,8.50
2023-10-25T03:45:10.433Z,8.50
2023-10-25T03:49:12.283Z,8.50
2023-10-25T03:53:13.989Z,8.50
2023-10-25T03:57:15.706Z,8.50
2023-10-25T04:01:17.436Z,8.50
2023-10-25T04:05:19.091Z,8.50
2023-10-25T04:09:20.789Z,8.50
2023-10-25T04:13:23.118Z,8.50
2023-10-25T04:17:25.083Z,8.50
2023-10-25T04:21:26.838Z,8.50
2023-10-25T04:25:28.477Z,8.60
2023-10-25T04:29:30.297Z,8.60
2023-10-25T04:33:32.148Z,8.70
2023-10-25T04:37:34.206Z,8.70
2023-10-25T04:41:35.871Z,8.70
2023-10-25T04:45:37.881Z,8.70
2023-10-25T04:49:39.644Z,8.70
2023-10-25T04:53:42.200Z,8.70
2023-10-25T04:57:43.894Z,8.70
2023-10-25T05:01:45.679Z,8.80
2023-10-25T05:05:47.857Z,8.80
2023-10-25T05:09:50.007Z,8.80
2023-10-25T05:13:51.945Z,8.90
2023-10-25T05:17:53.968Z,8.90
2023-10-25T05:21:56.865Z,8.90
2023-10-25T05:26:03.725Z,8.80
2023-10-25T05:30:08.604Z,8.90
2023-10-25T05:34:11.569Z,8.80
2023-10-25T05:38:14.172Z,8.80
2023-10-25T05:42:20.379Z,8.80
2023-10-25T05:46:22.152Z,8.80
2023-10-25T05:50:24.162Z,8.80
2023-10-25T05:54:26.218Z,8.70
2023-10-25T05:58:28.256Z,8.70
2023-10-25T06:02:33.382Z,8.80
2023-10-25T06:06:36.667Z,8.70
2023-10-25T06:10:39.090Z,8.80
2023-10-25T06:14:41.089Z,8.80
2023-10-25T06:18:43.002Z,8.80
2023-10-25T06:22:44.628Z,8.80
2023-10-25T06:26:46.501Z,8.90
2023-10-25T06:30:48.384Z,9.00
2023-10-25T06:34:50.414Z,9.00
2023-10-25T06:38:52.414Z,9.10
2023-10-25T06:42:54.504Z,9.10
2023-10-25T06:46:56.521Z,9.20
2023-10-25T06:50:59.941Z,9.20
2023-10-25T06:55:01.891Z,9.30
2023-10-25T06:59:04.114Z,9.40
2023-10-25T07:03:10.128Z,9.50
2023-10-25T07:07:13.487Z,9.50
2023-10-25T07:11:15.291Z,9.70
2023-10-25T07:15:17.671Z,9.70
2023-10-25T07:19:19.334Z,9.80
2023-10-25T07:23:21.070Z,9.90
2023-10-25T07:27:22.859Z,9.90
2023-10-25T07:31:24.603Z,10.00
2023-10-25T07:35:26.530Z,10.10
2023-10-25T07:39:28.195Z,10.10
2023-10-25T07:43:31.364Z,10.20
2023-10-25T07:47:33.544Z,10.20
2023-10-25T07:51:37.197Z,10.10
2023-10-25T07:59:47.496Z,10.10
2023-10-25T08:03:49.229Z,10.10
2023-10-25T08:07:51.047Z,10.00
2023-10-25T08:11:53.759Z,10.10
2023-10-25T08:15:59.928Z,10.10
2023-10-25T08:20:01.817Z,10.40
2023-10-25T08:24:06.437Z,10.50
2023-10-25T08:28:08.112Z,10.60
2023-10-25T08:32:09.820Z,10.70
2023-10-25T08:36:11.738Z,10.80
2023-10-25T08:40:15.826Z,10.80
2023-10-25T08:44:17.630Z,10.90
2023-10-25T08:48:19.353Z,11.10
2023-10-25T08:52:26.440Z,11.30
2023-10-25T08:56:28.346Z,11.50
2023-10-25T09:00:47.170Z,11.70
2023-10-25T09:05:07.558Z,11.70
2023-10-25T09:09:10.309Z,11.70
2023-10-25T09:13:15.102Z,11.50
2023-10-25T09:17:16.955Z,11.30
2023-10-25T09:21:30.098Z,11.40
2023-10-25T09:25:31.804Z,11.30
2023-10-25T09:29:36.754Z,11.30
2023-10-25T09:33:38.478Z,11.30
2023-10-25T09:37:40.485Z,11.10
2023-10-25T09:41:44.641Z,10.90
2023-10-25T09:45:55.634Z,10.90
2023-10-25T09:50:09.184Z,10.90
2023-10-25T09:54:12.837Z,10.90
2023-10-25T09:58:16.243Z,10.90
2023-10-25T10:02:32.451Z,10.80
2023-10-25T10:06:39.452Z,10.80
2023-10-25T10:10:57.127Z,10.80
2023-10-25T10:14:59.872Z,10.70
2023-10-25T10:19:01.615Z,10.70
2023-10-25T10:23:08.170Z,10.80
2023-10-25T10:27:12.201Z,10.90
2023-10-25T10:31:14.930Z,11.00
2023-10-25T10:35:22.593Z,11.20
2023-10-25T10:39:24.307Z,11.30
2023-10-25T10:43:25.964Z,11.40
2023-10-25T10:47:38.974Z,11.40
2023-10-25T10:51:40.952Z,11.50
2023-10-25T10:55:44.736Z,11.50
2023-10-25T10:59:46.822Z,11.40
2023-10-25T11:03:50.159Z,11.40
2023-10-25T11:07:54.554Z,11.30
2023-10-25T11:12:12.403Z,11.30
2023-10-25T11:16:14.483Z,11.30
2023-10-25T11:20:16.218Z,11.30
2023-10-25T11:24:17.890Z,11.20
2023-10-25T11:28:20.746Z,11.20
2023-10-25T11:32:22.524Z,11.20
2023-10-25T11:36:24.208Z,11.10
2023-10-25T11:40:46.780Z,11.20
2023-10-25T11:44:48.887Z,11.00
2023-10-25T11:48:51.092Z,11.00
2023-10-25T11:52:52.772Z,11.00
2023-10-25T11:56:54.503Z,10.90
2023-10-25T12:00:56.365Z,10.90
2023-10-25T12:04:59.625Z,10.80
2023-10-25T12:09:01.561Z,10.90
2023-10-25T12:13:03.799Z,10.90
2023-10-25T12:17:07.063Z,10.90
2023-10-25T12:21:09.462Z,10.90
2023-10-25T12:25:11.299Z,11.00
2023-10-25T12:29:13.191Z,10.90
2023-10-25T12:33:15.070Z,10.90
2023-10-25T12:37:16.915Z,10.90
2023-10-25T12:41:18.662Z,10.90
2023-10-25T12:45:20.408Z,10.90
2023-10-25T12:49:22.200Z,10.90
2023-10-25T12:53:24.150Z,11.00
2023-10-25T12:57:25.901Z,11.00
2023-10-25T13:01:27.841Z,10.90
2023-10-25T13:05:29.686Z,10.90
2023-10-25T13:09:31.591Z,11.00
2023-10-25T13:13:33.287Z,11.00
2023-10-25T13:17:35.119Z,11.00
2023-10-25T13:21:39.982Z,11.00
2023-10-25T13:25:41.791Z,10.90
2023-10-25T13:29:44.382Z,11.00
2023-10-25T13:33:46.406Z,11.00
2023-10-25T13:37:48.158Z,10.90
2023-10-25T13:41:50.016Z,11.00
2023-10-25T13:45:52.177Z,11.00
2023-10-25T13:49:53.895Z,10.80
2023-10-25T13:53:55.711Z,10.80
2023-10-25T14:02:04.859Z,10.80
2023-10-25T14:06:06.681Z,10.80
2023-10-25T14:10:09.807Z,10.80
2023-10-25T14:14:11.483Z,10.80
2023-10-25T14:18:13.519Z,10.70
2023-10-25T14:22:15.493Z,10.80
2023-10-25T14:26:17.439Z,10.70
2023-10-25T14:30:19.215Z,10.80
2023-10-25T14:34:21.031Z,10.80
2023-10-25T14:38:22.765Z,10.80
2023-10-25T14:42:24.490Z,10.90
2023-10-25T14:46:28.349Z,11.00
2023-10-25T14:50:37.674Z,11.00
2023-10-25T14:54:39.369Z,11.00
2023-10-25T14:58:41.198Z,11.00
2023-10-25T15:02:42.976Z,11.00
2023-10-25T15:06:44.794Z,11.00
2023-10-25T15:10:46.548Z,10.90
2023-10-25T15:14:53.411Z,11.00
2023-10-25T15:18:55.900Z,10.90
2023-10-25T15:22:57.578Z,11.00
2023-10-25T15:26:59.531Z,11.00
2023-10-25T15:31:03.186Z,11.00
2023-10-25T15:35:05.387Z,11.00
2023-10-25T15:39:10.420Z,11.00
2023-10-25T15:43:12.415Z,11.00
2023-10-25T15:47:14.085Z,11.00
2023-10-25T15:51:16.606Z,11.00
2023-10-25T15:55:18.284Z,11.00
2023-10-25T15:59:20.967Z,11.00
2023-10-25T16:03:22.819Z,11.00
2023-10-25T16:07:24.614Z,11.00
2023-10-25T16:11:27.714Z,11.00
2023-10-25T16:15:29.512Z,11.00
2023-10-25T16:19:32.808Z,11.10
2023-10-25T16:23:42.407Z,11.10
2023-10-25T16:27:44.223Z,11.10
2023-10-25T16:31:45.960Z,11.00
2023-10-25T16:35:47.658Z,11.10
2023-10-25T16:39:49.348Z,11.10
2023-10-25T16:43:51.085Z,11.10
2023-10-25T16:47:52.839Z,11.10
2023-10-25T16:51:54.549Z,11.20
2023-10-25T16:55:56.642Z,11.10
2023-10-25T16:59:58.299Z,11.10
2023-10-25T17:04:00.186Z,11.00
2023-10-25T17:08:02.132Z,11.00
2023-10-25T17:12:04.235Z,11.00
2023-10-25T17:16:07.097Z,11.00
2023-10-25T17:20:09.771Z,11.10
2023-10-25T17:24:13.477Z,11.10
2023-10-25T17:28:15.717Z,11.00
2023-10-25T17:32:17.456Z,10.90
2023-10-25T17:36:20.820Z,10.90
2023-10-25T17:40:23.328Z,11.10
2023-10-25T17:44:25.019Z,11.00
2023-10-25T17:48:28.011Z,10.90
2023-10-25T17:52:43.279Z,11.00
2023-10-25T17:56:47.620Z,11.10
2023-10-25T18:00:50.692Z,11.10
2023-10-25T18:04:52.615Z,11.20
2023-10-25T18:08:54.414Z,11.20
2023-10-25T18:12:56.103Z,11.30
2023-10-25T18:16:58.447Z,11.30
2023-10-25T18:21:00.330Z,11.40
2023-10-25T18:25:02.118Z,11.40
2023-10-25T18:29:04.017Z,11.50
2023-10-25T18:33:06.529Z,11.50
2023-10-25T18:37:08.664Z,11.60
2023-10-25T18:41:10.385Z,11.60
2023-10-25T18:45:12.456Z,11.60
2023-10-25T18:49:14.821Z,11.60
2023-10-25T18:53:16.505Z,11.60
2023-10-25T18:57:18.187Z,11.60
2023-10-25T19:01:21.268Z,11.60
2023-10-25T19:06:30.759Z,11.60
2023-10-25T19:09:49.507Z,11.70
2023-10-25T19:13:54.617Z,11.70
2023-10-25T19:17:57.417Z,11.80
2023-10-25T19:21:59.170Z,11.80
2023-10-25T19:26:03.406Z,11.70
2023-10-25T19:30:05.785Z,11.70
2023-10-25T19:34:07.574Z,11.70
2023-10-25T19:38:09.461Z,11.70
2023-10-25T19:42:11.214Z,11.70
2023-10-25T19:46:13.078Z,11.60
2023-10-25T19:50:16.776Z,11.70
2023-10-25T19:54:19.984Z,11.60
2023-10-25T19:58:22.236Z,11.60
2023-10-25T20:02:24.132Z,11.60
2023-10-25T20:06:26.502Z,11.60
2023-10-25T20:10:28.408Z,11.50
2023-10-25T20:14:30.214Z,11.50
2023-10-25T20:18:31.962Z,11.50
2023-10-25T20:22:37.882Z,11.50
2023-10-25T20:26:39.807Z,11.40
2023-10-25T20:30:43.699Z,11.30
2023-10-25T20:34:47.692Z,11.30
2023-10-25T20:38:49.951Z,11.30
2023-10-25T20:42:51.774Z,11.40
2023-10-25T20:46:53.460Z,11.30
2023-10-25T20:50:59.787Z,11.40
2023-10-25T20:55:01.478Z,11.40
2023-10-25T20:59:03.703Z,11.20
2023-10-25T21:03:05.632Z,11.20
2023-10-25T21:07:07.761Z,11.20
2023-10-25T21:11:10.549Z,11.20
2023-10-25T21:15:14.676Z,11.20
2023-10-25T21:19:16.402Z,11.20
2023-10-25T21:23:18.259Z,11.20
2023-10-25T21:27:19.955Z,11.10
2023-10-25T21:31:21.608Z,11.10
2023-10-25T21:35:23.249Z,11.10
2023-10-25T21:39:25.156Z,11.10
2023-10-25T21:43:26.882Z,11.10
2023-10-25T21:47:29.310Z,11.10
2023-10-25T21:51:31.055Z,11.10
2023-10-25T21:55:32.751Z,11.10
2023-10-25T21:59:50.307Z,11.10
2023-10-25T22:03:55.383Z,11.00
2023-10-25T22:07:57.141Z,11.00
2023-10-25T22:11:58.885Z,10.90
2023-10-25T22:16:00.679Z,10.90
2023-10-25T22:20:02.468Z,10.90
2023-10-25T22:24:05.198Z,10.90
2023-10-25T22:28:07.010Z,10.90
2023-10-25T22:32:08.722Z,10.90
2023-10-25T22:36:13.460Z,11.10
2023-10-25T22:40:15.224Z,11.00
2023-10-25T22:44:16.947Z,11.00
2023-10-25T22:48:18.746Z,10.90
2023-10-25T22:52:20.589Z,10.90
2023-10-25T22:56:22.395Z,10.80
2023-10-25T23:00:24.097Z,10.90
2023-10-25T23:04:25.856Z,10.90
2023-10-25T23:08:27.637Z,10.90
2023-10-25T23:12:29.295Z,10.90
2023-10-25T23:16:30.986Z,10.90
2023-10-25T23:20:32.716Z,10.90
2023-10-25T23:24:34.386Z,10.90
2023-10-25T23:28:36.851Z,10.90
2023-10-25T23:32:38.588Z,10.90
2023-10-25T23:36:40.280Z,10.80
2023-10-25T23:40:42.224Z,10.80
2023-10-25T23:44:44.254Z,10.70
2023-10-25T23:48:46.283Z,10.60
2023-10-25T23:52:48.160Z,10.60
2023-10-25T23:56:49.990Z,10.50
